sensor_id;sensor_type;location;lat;lon;timestamp;P1;durP1;ratioP1;P2;durP2;ratioP2
21091;SDS011;10704;42.678;23.288;2022-11-21T00:01:19;15.45;;;8.73;;
21091;SDS011;10704;42.678;23.288;2022-11-21T00:03:49;11.82;;;8.15;;
21091;SDS011;10704;42.678;23.288;2022-11-21T00:06:15;12.82;;;8.18;;
21091;SDS011;10704;42.678;23.288;2022-11-21T00:08:42;13.68;;;7.93;;
21091;SDS011;10704;42.678;23.288;2022-11-21T00:11:08;11.90;;;7.43;;
21091;SDS011;10704;42.678;23.288;2022-11-21T00:13:34;12.45;;;7.88;;
21091;SDS011;10704;42.678;23.288;2022-11-21T00:16:05;13.02;;;8.07;;
21091;SDS011;10704;42.678;23.288;2022-11-21T00:18:33;11.65;;;7.03;;
21091;SDS011;10704;42.678;23.288;2022-11-21T00:21:06;12.63;;;7.85;;
21091;SDS011;10704;42.678;23.288;2022-11-21T00:23:34;13.85;;;8.02;;
21091;SDS011;10704;42.678;23.288;2022-11-21T00:26:06;12.38;;;7.57;;
21091;SDS011;10704;42.678;23.288;2022-11-21T00:28:34;12.38;;;8.15;;
21091;SDS011;10704;42.678;23.288;2022-11-21T00:31:00;14.40;;;9.82;;
21091;SDS011;10704;42.678;23.288;2022-11-21T00:33:27;16.75;;;9.40;;
21091;SDS011;10704;42.678;23.288;2022-11-21T00:35:53;15.63;;;9.57;;
21091;SDS011;10704;42.678;23.288;2022-11-21T00:38:18;12.57;;;8.93;;
21091;SDS011;10704;42.678;23.288;2022-11-21T00:40:44;12.65;;;8.75;;
21091;SDS011;10704;42.678;23.288;2022-11-21T00:43:10;14.32;;;9.07;;
21091;SDS011;10704;42.678;23.288;2022-11-21T00:45:36;16.35;;;10.07;;
21091;SDS011;10704;42.678;23.288;2022-11-21T00:48:02;15.73;;;10.55;;
21091;SDS011;10704;42.678;23.288;2022-11-21T00:50:28;14.88;;;10.60;;
21091;SDS011;10704;42.678;23.288;2022-11-21T00:52:57;16.17;;;11.05;;
21091;SDS011;10704;42.678;23.288;2022-11-21T00:55:23;13.77;;;9.13;;
21091;SDS011;10704;42.678;23.288;2022-11-21T00:57:50;17.92;;;10.52;;
21091;SDS011;10704;42.678;23.288;2022-11-21T01:00:16;18.17;;;10.77;;
21091;SDS011;10704;42.678;23.288;2022-11-21T01:02:42;14.10;;;10.65;;
21091;SDS011;10704;42.678;23.288;2022-11-21T01:05:08;16.30;;;9.35;;
21091;SDS011;10704;42.678;23.288;2022-11-21T01:07:34;15.32;;;9.18;;
21091;SDS011;10704;42.678;23.288;2022-11-21T01:10:00;11.80;;;8.38;;
21091;SDS011;10704;42.678;23.288;2022-11-21T01:12:27;15.98;;;10.18;;
21091;SDS011;10704;42.678;23.288;2022-11-21T01:14:53;15.30;;;9.73;;
21091;SDS011;10704;42.678;23.288;2022-11-21T01:17:18;15.40;;;8.57;;
21091;SDS011;10704;42.678;23.288;2022-11-21T01:19:46;11.95;;;8.45;;
21091;SDS011;10704;42.678;23.288;2022-11-21T01:22:11;12.45;;;7.80;;
21091;SDS011;10704;42.678;23.288;2022-11-21T01:24:37;12.88;;;8.38;;
21091;SDS011;10704;42.678;23.288;2022-11-21T01:27:03;15.13;;;8.48;;
21091;SDS011;10704;42.678;23.288;2022-11-21T01:29:29;14.70;;;8.52;;
21091;SDS011;10704;42.678;23.288;2022-11-21T01:31:55;15.45;;;9.25;;
21091;SDS011;10704;42.678;23.288;2022-11-21T01:34:21;16.52;;;10.60;;
21091;SDS011;10704;42.678;23.288;2022-11-21T01:36:47;17.27;;;10.82;;
21091;SDS011;10704;42.678;23.288;2022-11-21T01:39:13;20.05;;;12.15;;
21091;SDS011;10704;42.678;23.288;2022-11-21T01:41:40;18.75;;;12.20;;
21091;SDS011;10704;42.678;23.288;2022-11-21T01:44:15;20.80;;;12.23;;
21091;SDS011;10704;42.678;23.288;2022-11-21T01:46:44;19.20;;;9.98;;
21091;SDS011;10704;42.678;23.288;2022-11-21T01:54:43;18.80;;;11.93;;
21091;SDS011;10704;42.678;23.288;2022-11-21T01:57:30;18.33;;;12.90;;
21091;SDS011;10704;42.678;23.288;2022-11-21T01:59:59;18.83;;;11.60;;
21091;SDS011;10704;42.678;23.288;2022-11-21T02:02:35;15.63;;;9.70;;
21091;SDS011;10704;42.678;23.288;2022-11-21T02:05:05;15.13;;;9.02;;
21091;SDS011;10704;42.678;23.288;2022-11-21T02:07:34;19.23;;;8.75;;
21091;SDS011;10704;42.678;23.288;2022-11-21T02:10:03;15.02;;;9.35;;
21091;SDS011;10704;42.678;23.288;2022-11-21T02:12:43;16.00;;;10.07;;
21091;SDS011;10704;42.678;23.288;2022-11-21T02:15:11;13.93;;;9.52;;
21091;SDS011;10704;42.678;23.288;2022-11-21T02:17:37;12.45;;;8.52;;
21091;SDS011;10704;42.678;23.288;2022-11-21T02:20:07;15.50;;;9.07;;
21091;SDS011;10704;42.678;23.288;2022-11-21T02:27:49;15.90;;;7.50;;
21091;SDS011;10704;42.678;23.288;2022-11-21T02:30:23;14.77;;;7.85;;
21091;SDS011;10704;42.678;23.288;2022-11-21T02:32:52;10.77;;;7.10;;
21091;SDS011;10704;42.678;23.288;2022-11-21T02:35:18;15.65;;;7.93;;
21091;SDS011;10704;42.678;23.288;2022-11-21T02:37:45;13.40;;;7.90;;
21091;SDS011;10704;42.678;23.288;2022-11-21T02:40:20;13.45;;;8.20;;
21091;SDS011;10704;42.678;23.288;2022-11-21T02:43:05;15.27;;;8.40;;
21091;SDS011;10704;42.678;23.288;2022-11-21T02:45:39;13.77;;;8.32;;
21091;SDS011;10704;42.678;23.288;2022-11-21T02:48:07;14.45;;;7.97;;
21091;SDS011;10704;42.678;23.288;2022-11-21T02:50:34;14.15;;;6.05;;
21091;SDS011;10704;42.678;23.288;2022-11-21T02:53:02;8.27;;;4.90;;
21091;SDS011;10704;42.678;23.288;2022-11-21T02:55:31;7.22;;;4.72;;
21091;SDS011;10704;42.678;23.288;2022-11-21T02:57:57;12.10;;;4.63;;
21091;SDS011;10704;42.678;23.288;2022-11-21T03:00:23;12.38;;;5.25;;
21091;SDS011;10704;42.678;23.288;2022-11-21T03:02:49;9.45;;;3.80;;
21091;SDS011;10704;42.678;23.288;2022-11-21T03:05:16;7.32;;;3.30;;
21091;SDS011;10704;42.678;23.288;2022-11-21T03:07:43;9.02;;;2.97;;
21091;SDS011;10704;42.678;23.288;2022-11-21T03:10:09;9.48;;;3.47;;
21091;SDS011;10704;42.678;23.288;2022-11-21T03:12:35;10.43;;;3.38;;
21091;SDS011;10704;42.678;23.288;2022-11-21T03:15:03;9.70;;;2.72;;
21091;SDS011;10704;42.678;23.288;2022-11-21T03:17:30;7.20;;;2.65;;
21091;SDS011;10704;42.678;23.288;2022-11-21T03:19:56;6.15;;;3.50;;
21091;SDS011;10704;42.678;23.288;2022-11-21T03:22:22;6.93;;;2.55;;
21091;SDS011;10704;42.678;23.288;2022-11-21T03:24:48;6.40;;;2.80;;
21091;SDS011;10704;42.678;23.288;2022-11-21T03:27:14;9.30;;;3.22;;
21091;SDS011;10704;42.678;23.288;2022-11-21T03:29:39;6.85;;;2.78;;
21091;SDS011;10704;42.678;23.288;2022-11-21T03:32:05;5.63;;;2.05;;
21091;SDS011;10704;42.678;23.288;2022-11-21T03:34:31;5.57;;;2.75;;
21091;SDS011;10704;42.678;23.288;2022-11-21T03:36:57;7.50;;;2.50;;
21091;SDS011;10704;42.678;23.288;2022-11-21T03:39:23;7.32;;;3.05;;
21091;SDS011;10704;42.678;23.288;2022-11-21T03:41:49;8.50;;;2.67;;
21091;SDS011;10704;42.678;23.288;2022-11-21T03:44:15;7.32;;;2.58;;
21091;SDS011;10704;42.678;23.288;2022-11-21T03:46:45;7.43;;;3.38;;
21091;SDS011;10704;42.678;23.288;2022-11-21T03:49:12;6.78;;;2.50;;
21091;SDS011;10704;42.678;23.288;2022-11-21T03:51:38;7.95;;;2.85;;
21091;SDS011;10704;42.678;23.288;2022-11-21T03:54:05;6.18;;;2.38;;
21091;SDS011;10704;42.678;23.288;2022-11-21T03:56:31;7.85;;;2.33;;
21091;SDS011;10704;42.678;23.288;2022-11-21T03:58:57;4.03;;;1.27;;
21091;SDS011;10704;42.678;23.288;2022-11-21T04:01:23;5.90;;;1.85;;
21091;SDS011;10704;42.678;23.288;2022-11-21T04:03:50;3.60;;;1.20;;
21091;SDS011;10704;42.678;23.288;2022-11-21T04:06:17;4.25;;;1.02;;
21091;SDS011;10704;42.678;23.288;2022-11-21T04:08:45;6.35;;;1.77;;
21091;SDS011;10704;42.678;23.288;2022-11-21T04:11:11;6.00;;;1.08;;
21091;SDS011;10704;42.678;23.288;2022-11-21T04:13:37;6.70;;;1.60;;
21091;SDS011;10704;42.678;23.288;2022-11-21T04:16:04;6.75;;;1.27;;
21091;SDS011;10704;42.678;23.288;2022-11-21T04:18:30;5.93;;;1.10;;
21091;SDS011;10704;42.678;23.288;2022-11-21T04:20:58;8.30;;;1.20;;
21091;SDS011;10704;42.678;23.288;2022-11-21T04:23:25;7.10;;;1.25;;
21091;SDS011;10704;42.678;23.288;2022-11-21T04:25:52;5.57;;;1.33;;
21091;SDS011;10704;42.678;23.288;2022-11-21T04:28:18;5.57;;;1.00;;
21091;SDS011;10704;42.678;23.288;2022-11-21T04:30:44;5.75;;;1.20;;
21091;SDS011;10704;42.678;23.288;2022-11-21T04:33:10;7.22;;;1.20;;
21091;SDS011;10704;42.678;23.288;2022-11-21T04:35:37;6.18;;;0.93;;
21091;SDS011;10704;42.678;23.288;2022-11-21T04:38:03;4.72;;;0.90;;
21091;SDS011;10704;42.678;23.288;2022-11-21T04:40:29;6.60;;;1.00;;
21091;SDS011;10704;42.678;23.288;2022-11-21T04:42:55;6.10;;;0.80;;
21091;SDS011;10704;42.678;23.288;2022-11-21T04:45:21;4.07;;;0.98;;
21091;SDS011;10704;42.678;23.288;2022-11-21T04:47:47;6.32;;;1.50;;
21091;SDS011;10704;42.678;23.288;2022-11-21T04:50:15;9.93;;;1.42;;
21091;SDS011;10704;42.678;23.288;2022-11-21T04:52:47;7.35;;;0.90;;
21091;SDS011;10704;42.678;23.288;2022-11-21T04:55:18;7.07;;;1.23;;
21091;SDS011;10704;42.678;23.288;2022-11-21T04:57:44;4.18;;;1.48;;
21091;SDS011;10704;42.678;23.288;2022-11-21T05:00:11;6.18;;;1.27;;
21091;SDS011;10704;42.678;23.288;2022-11-21T05:02:41;2.65;;;0.70;;
21091;SDS011;10704;42.678;23.288;2022-11-21T05:05:07;5.88;;;1.25;;
21091;SDS011;10704;42.678;23.288;2022-11-21T05:07:33;5.95;;;1.42;;
21091;SDS011;10704;42.678;23.288;2022-11-21T05:09:59;6.15;;;1.73;;
21091;SDS011;10704;42.678;23.288;2022-11-21T05:12:25;7.72;;;1.73;;
21091;SDS011;10704;42.678;23.288;2022-11-21T05:15:09;3.47;;;1.42;;
21091;SDS011;10704;42.678;23.288;2022-11-21T05:17:35;5.85;;;1.83;;
21091;SDS011;10704;42.678;23.288;2022-11-21T05:20:01;6.88;;;1.67;;
21091;SDS011;10704;42.678;23.288;2022-11-21T05:22:28;5.03;;;1.70;;
21091;SDS011;10704;42.678;23.288;2022-11-21T05:24:54;3.33;;;1.35;;
21091;SDS011;10704;42.678;23.288;2022-11-21T05:27:20;3.25;;;1.08;;
21091;SDS011;10704;42.678;23.288;2022-11-21T05:29:46;5.55;;;1.00;;
21091;SDS011;10704;42.678;23.288;2022-11-21T05:32:11;3.78;;;1.10;;
21091;SDS011;10704;42.678;23.288;2022-11-21T05:34:37;2.90;;;1.17;;
21091;SDS011;10704;42.678;23.288;2022-11-21T05:37:03;5.07;;;1.17;;
21091;SDS011;10704;42.678;23.288;2022-11-21T05:39:29;5.30;;;1.25;;
21091;SDS011;10704;42.678;23.288;2022-11-21T05:41:55;3.75;;;1.10;;
21091;SDS011;10704;42.678;23.288;2022-11-21T05:44:21;3.58;;;1.00;;
21091;SDS011;10704;42.678;23.288;2022-11-21T05:46:50;5.65;;;1.15;;
21091;SDS011;10704;42.678;23.288;2022-11-21T05:49:16;5.43;;;1.20;;
21091;SDS011;10704;42.678;23.288;2022-11-21T05:51:42;3.83;;;0.90;;
21091;SDS011;10704;42.678;23.288;2022-11-21T05:54:11;2.38;;;1.25;;
21091;SDS011;10704;42.678;23.288;2022-11-21T06:00:13;3.30;;;1.25;;
21091;SDS011;10704;42.678;23.288;2022-11-21T06:02:40;2.10;;;0.80;;
21091;SDS011;10704;42.678;23.288;2022-11-21T06:05:24;1.30;;;0.63;;
21091;SDS011;10704;42.678;23.288;2022-11-21T06:07:50;2.25;;;0.88;;
21091;SDS011;10704;42.678;23.288;2022-11-21T06:10:16;3.30;;;1.25;;
21091;SDS011;10704;42.678;23.288;2022-11-21T06:12:42;3.47;;;1.27;;
21091;SDS011;10704;42.678;23.288;2022-11-21T06:15:08;2.72;;;1.30;;
21091;SDS011;10704;42.678;23.288;2022-11-21T06:21:40;2.92;;;1.30;;
21091;SDS011;10704;42.678;23.288;2022-11-21T06:24:06;2.33;;;1.25;;
21091;SDS011;10704;42.678;23.288;2022-11-21T06:26:32;2.38;;;1.00;;
21091;SDS011;10704;42.678;23.288;2022-11-21T06:28:58;2.42;;;1.15;;
21091;SDS011;10704;42.678;23.288;2022-11-21T06:31:25;4.35;;;1.55;;
21091;SDS011;10704;42.678;23.288;2022-11-21T06:33:55;4.05;;;1.15;;
21091;SDS011;10704;42.678;23.288;2022-11-21T06:36:23;3.38;;;1.40;;
21091;SDS011;10704;42.678;23.288;2022-11-21T06:38:49;4.60;;;1.20;;
21091;SDS011;10704;42.678;23.288;2022-11-21T06:41:19;4.18;;;1.70;;
21091;SDS011;10704;42.678;23.288;2022-11-21T06:55:13;3.13;;;1.60;;
21091;SDS011;10704;42.678;23.288;2022-11-21T06:57:39;1.70;;;0.70;;
21091;SDS011;10704;42.678;23.288;2022-11-21T07:00:05;3.15;;;1.48;;
21091;SDS011;10704;42.678;23.288;2022-11-21T07:06:19;3.88;;;1.70;;
21091;SDS011;10704;42.678;23.288;2022-11-21T07:12:34;9.70;;;4.85;;
21091;SDS011;10704;42.678;23.288;2022-11-21T07:15:31;8.43;;;2.88;;
21091;SDS011;10704;42.678;23.288;2022-11-21T07:17:57;5.80;;;2.15;;
21091;SDS011;10704;42.678;23.288;2022-11-21T07:24:30;8.13;;;2.53;;
21091;SDS011;10704;42.678;23.288;2022-11-21T07:26:56;6.25;;;3.42;;
21091;SDS011;10704;42.678;23.288;2022-11-21T07:29:22;6.60;;;3.38;;
21091;SDS011;10704;42.678;23.288;2022-11-21T07:31:48;8.50;;;3.10;;
21091;SDS011;10704;42.678;23.288;2022-11-21T07:34:14;7.47;;;2.90;;
21091;SDS011;10704;42.678;23.288;2022-11-21T07:36:39;5.22;;;2.60;;
21091;SDS011;10704;42.678;23.288;2022-11-21T07:39:05;6.75;;;3.10;;
21091;SDS011;10704;42.678;23.288;2022-11-21T07:45:19;5.35;;;3.20;;
21091;SDS011;10704;42.678;23.288;2022-11-21T07:47:45;9.38;;;3.55;;
21091;SDS011;10704;42.678;23.288;2022-11-21T07:50:11;5.60;;;3.55;;
21091;SDS011;10704;42.678;23.288;2022-11-21T07:52:37;5.75;;;3.05;;
21091;SDS011;10704;42.678;23.288;2022-11-21T07:55:04;7.43;;;3.33;;
21091;SDS011;10704;42.678;23.288;2022-11-21T07:57:31;7.45;;;2.70;;
21091;SDS011;10704;42.678;23.288;2022-11-21T07:59:57;5.80;;;2.63;;
21091;SDS011;10704;42.678;23.288;2022-11-21T08:02:24;7.68;;;3.55;;
21091;SDS011;10704;42.678;23.288;2022-11-21T08:04:51;6.72;;;3.70;;
21091;SDS011;10704;42.678;23.288;2022-11-21T08:07:18;7.45;;;4.57;;
21091;SDS011;10704;42.678;23.288;2022-11-21T08:09:45;16.45;;;13.20;;
21091;SDS011;10704;42.678;23.288;2022-11-21T08:12:11;17.70;;;15.23;;
21091;SDS011;10704;42.678;23.288;2022-11-21T08:14:38;18.95;;;13.65;;
21091;SDS011;10704;42.678;23.288;2022-11-21T08:24:39;4.50;;;2.20;;
21091;SDS011;10704;42.678;23.288;2022-11-21T08:27:05;6.35;;;3.05;;
21091;SDS011;10704;42.678;23.288;2022-11-21T08:29:31;6.82;;;3.45;;
21091;SDS011;10704;42.678;23.288;2022-11-21T08:39:49;4.13;;;2.00;;
21091;SDS011;10704;42.678;23.288;2022-11-21T08:45:09;6.10;;;2.65;;
21091;SDS011;10704;42.678;23.288;2022-11-21T08:47:34;5.45;;;2.85;;
21091;SDS011;10704;42.678;23.288;2022-11-21T08:53:48;7.63;;;2.90;;
21091;SDS011;10704;42.678;23.288;2022-11-21T08:56:14;7.88;;;3.50;;
21091;SDS011;10704;42.678;23.288;2022-11-21T08:58:40;6.35;;;3.05;;
21091;SDS011;10704;42.678;23.288;2022-11-21T09:01:06;5.63;;;2.65;;
21091;SDS011;10704;42.678;23.288;2022-11-21T09:03:32;7.03;;;3.10;;
21091;SDS011;10704;42.678;23.288;2022-11-21T09:05:58;5.28;;;2.72;;
21091;SDS011;10704;42.678;23.288;2022-11-21T09:12:12;5.18;;;2.95;;
21091;SDS011;10704;42.678;23.288;2022-11-21T09:26:04;6.82;;;3.55;;
21091;SDS011;10704;42.678;23.288;2022-11-21T09:28:30;5.38;;;3.08;;
21091;SDS011;10704;42.678;23.288;2022-11-21T09:30:56;5.68;;;2.33;;
21091;SDS011;10704;42.678;23.288;2022-11-21T09:33:22;5.72;;;2.83;;
21091;SDS011;10704;42.678;23.288;2022-11-21T09:39:35;5.38;;;2.92;;
21091;SDS011;10704;42.678;23.288;2022-11-21T09:47:20;6.40;;;3.63;;
21091;SDS011;10704;42.678;23.288;2022-11-21T09:53:37;7.13;;;3.15;;
21091;SDS011;10704;42.678;23.288;2022-11-21T09:56:14;6.85;;;4.75;;
21091;SDS011;10704;42.678;23.288;2022-11-21T10:01:49;7.30;;;4.63;;
21091;SDS011;10704;42.678;23.288;2022-11-21T10:04:15;6.97;;;4.80;;
21091;SDS011;10704;42.678;23.288;2022-11-21T10:06:45;9.60;;;6.53;;
21091;SDS011;10704;42.678;23.288;2022-11-21T10:28:37;8.50;;;5.50;;
21091;SDS011;10704;42.678;23.288;2022-11-21T10:45:22;9.70;;;6.07;;
21091;SDS011;10704;42.678;23.288;2022-11-21T10:47:49;10.43;;;6.45;;
21091;SDS011;10704;42.678;23.288;2022-11-21T10:56:51;11.25;;;5.38;;
21091;SDS011;10704;42.678;23.288;2022-11-21T10:59:28;7.70;;;4.43;;
21091;SDS011;10704;42.678;23.288;2022-11-21T11:01:56;7.43;;;4.75;;
21091;SDS011;10704;42.678;23.288;2022-11-21T11:04:22;9.73;;;4.82;;
21091;SDS011;10704;42.678;23.288;2022-11-21T11:13:49;9.93;;;6.45;;
21091;SDS011;10704;42.678;23.288;2022-11-21T11:16:25;9.13;;;6.22;;
21091;SDS011;10704;42.678;23.288;2022-11-21T11:22:28;10.27;;;6.13;;
21091;SDS011;10704;42.678;23.288;2022-11-21T11:24:54;8.45;;;5.80;;
21091;SDS011;10704;42.678;23.288;2022-11-21T11:27:25;15.02;;;8.13;;
21091;SDS011;10704;42.678;23.288;2022-11-21T11:29:53;14.38;;;9.57;;
21091;SDS011;10704;42.678;23.288;2022-11-21T11:32:19;15.15;;;8.60;;
21091;SDS011;10704;42.678;23.288;2022-11-21T11:56:11;7.97;;;4.47;;
21091;SDS011;10704;42.678;23.288;2022-11-21T11:58:43;20.75;;;6.00;;
21091;SDS011;10704;42.678;23.288;2022-11-21T12:10:31;9.32;;;5.72;;
21091;SDS011;10704;42.678;23.288;2022-11-21T12:16:58;10.35;;;5.55;;
21091;SDS011;10704;42.678;23.288;2022-11-21T12:19:24;9.15;;;4.97;;
21091;SDS011;10704;42.678;23.288;2022-11-21T12:28:20;13.63;;;5.47;;
21091;SDS011;10704;42.678;23.288;2022-11-21T12:33:57;11.25;;;5.68;;
21091;SDS011;10704;42.678;23.288;2022-11-21T12:36:48;9.63;;;5.03;;
21091;SDS011;10704;42.678;23.288;2022-11-21T12:42:23;12.32;;;4.97;;
21091;SDS011;10704;42.678;23.288;2022-11-21T12:45:32;15.70;;;10.23;;
21091;SDS011;10704;42.678;23.288;2022-11-21T12:57:14;17.95;;;12.77;;
21091;SDS011;10704;42.678;23.288;2022-11-21T13:05:48;10.63;;;7.03;;
21091;SDS011;10704;42.678;23.288;2022-11-21T13:08:18;10.00;;;5.88;;
21091;SDS011;10704;42.678;23.288;2022-11-21T13:10:49;8.82;;;4.85;;
21091;SDS011;10704;42.678;23.288;2022-11-21T13:16:44;10.75;;;5.45;;
21091;SDS011;10704;42.678;23.288;2022-11-21T13:21:52;12.10;;;6.85;;
21091;SDS011;10704;42.678;23.288;2022-11-21T13:32:45;11.57;;;6.80;;
21091;SDS011;10704;42.678;23.288;2022-11-21T13:40:37;11.73;;;7.60;;
21091;SDS011;10704;42.678;23.288;2022-11-21T13:45:44;13.13;;;7.70;;
21091;SDS011;10704;42.678;23.288;2022-11-21T14:18:55;13.50;;;7.40;;
21091;SDS011;10704;42.678;23.288;2022-11-21T14:21:23;16.25;;;8.95;;
21091;SDS011;10704;42.678;23.288;2022-11-21T14:23:59;12.95;;;9.30;;
21091;SDS011;10704;42.678;23.288;2022-11-21T14:26:30;15.25;;;8.77;;
21091;SDS011;10704;42.678;23.288;2022-11-21T14:29:25;15.50;;;8.57;;
21091;SDS011;10704;42.678;23.288;2022-11-21T14:31:51;15.70;;;9.70;;
21091;SDS011;10704;42.678;23.288;2022-11-21T14:45:39;14.90;;;9.10;;
21091;SDS011;10704;42.678;23.288;2022-11-21T14:48:13;13.35;;;7.38;;
21091;SDS011;10704;42.678;23.288;2022-11-21T14:50:39;13.57;;;8.30;;
21091;SDS011;10704;42.678;23.288;2022-11-21T14:53:09;14.75;;;9.15;;
21091;SDS011;10704;42.678;23.288;2022-11-21T14:55:36;15.88;;;9.52;;
21091;SDS011;10704;42.678;23.288;2022-11-21T14:58:02;14.70;;;8.80;;
21091;SDS011;10704;42.678;23.288;2022-11-21T15:00:30;14.32;;;9.35;;
21091;SDS011;10704;42.678;23.288;2022-11-21T15:02:57;14.27;;;9.18;;
21091;SDS011;10704;42.678;23.288;2022-11-21T15:05:32;14.43;;;8.55;;
21091;SDS011;10704;42.678;23.288;2022-11-21T15:07:59;15.07;;;8.85;;
21091;SDS011;10704;42.678;23.288;2022-11-21T15:10:31;14.70;;;8.70;;
21091;SDS011;10704;42.678;23.288;2022-11-21T15:13:01;13.82;;;7.43;;
21091;SDS011;10704;42.678;23.288;2022-11-21T15:15:38;15.45;;;10.10;;
21091;SDS011;10704;42.678;23.288;2022-11-21T15:18:18;15.10;;;9.15;;
21091;SDS011;10704;42.678;23.288;2022-11-21T15:20:51;13.35;;;8.48;;
21091;SDS011;10704;42.678;23.288;2022-11-21T15:23:34;11.90;;;7.80;;
21091;SDS011;10704;42.678;23.288;2022-11-21T15:28:57;18.27;;;11.35;;
21091;SDS011;10704;42.678;23.288;2022-11-21T15:31:24;19.95;;;12.25;;
21091;SDS011;10704;42.678;23.288;2022-11-21T15:33:57;22.65;;;12.57;;
21091;SDS011;10704;42.678;23.288;2022-11-21T15:36:28;22.58;;;12.75;;
21091;SDS011;10704;42.678;23.288;2022-11-21T15:39:00;15.45;;;9.55;;
21091;SDS011;10704;42.678;23.288;2022-11-21T15:41:32;15.45;;;9.63;;
21091;SDS011;10704;42.678;23.288;2022-11-21T15:46:26;14.93;;;9.23;;
21091;SDS011;10704;42.678;23.288;2022-11-21T15:49:00;16.95;;;10.25;;
21091;SDS011;10704;42.678;23.288;2022-11-21T15:51:41;15.65;;;10.13;;
21091;SDS011;10704;42.678;23.288;2022-11-21T15:54:10;16.98;;;10.23;;
21091;SDS011;10704;42.678;23.288;2022-11-21T15:56:37;16.38;;;8.98;;
21091;SDS011;10704;42.678;23.288;2022-11-21T15:59:04;17.73;;;10.52;;
21091;SDS011;10704;42.678;23.288;2022-11-21T16:01:31;19.60;;;12.15;;
21091;SDS011;10704;42.678;23.288;2022-11-21T16:03:58;17.65;;;11.75;;
21091;SDS011;10704;42.678;23.288;2022-11-21T16:06:25;18.15;;;12.02;;
21091;SDS011;10704;42.678;23.288;2022-11-21T16:08:52;14.65;;;9.07;;
21091;SDS011;10704;42.678;23.288;2022-11-21T16:13:50;11.32;;;6.30;;
21091;SDS011;10704;42.678;23.288;2022-11-21T16:16:18;8.68;;;5.53;;
21091;SDS011;10704;42.678;23.288;2022-11-21T16:18:45;8.10;;;5.30;;
21091;SDS011;10704;42.678;23.288;2022-11-21T16:21:11;6.88;;;4.75;;
21091;SDS011;10704;42.678;23.288;2022-11-21T16:23:38;9.13;;;5.38;;
21091;SDS011;10704;42.678;23.288;2022-11-21T16:26:04;9.75;;;4.93;;
21091;SDS011;10704;42.678;23.288;2022-11-21T16:28:31;7.38;;;4.20;;
21091;SDS011;10704;42.678;23.288;2022-11-21T16:30:58;10.75;;;5.72;;
21091;SDS011;10704;42.678;23.288;2022-11-21T16:33:24;10.88;;;6.68;;
21091;SDS011;10704;42.678;23.288;2022-11-21T16:35:51;9.88;;;6.45;;
21091;SDS011;10704;42.678;23.288;2022-11-21T16:38:21;11.10;;;6.55;;
21091;SDS011;10704;42.678;23.288;2022-11-21T16:40:55;8.32;;;5.78;;
21091;SDS011;10704;42.678;23.288;2022-11-21T16:43:23;12.60;;;6.50;;
21091;SDS011;10704;42.678;23.288;2022-11-21T16:45:49;12.40;;;7.38;;
21091;SDS011;10704;42.678;23.288;2022-11-21T16:48:17;12.70;;;7.55;;
21091;SDS011;10704;42.678;23.288;2022-11-21T16:50:43;14.82;;;8.90;;
21091;SDS011;10704;42.678;23.288;2022-11-21T16:53:09;15.20;;;10.05;;
21091;SDS011;10704;42.678;23.288;2022-11-21T16:55:36;16.33;;;10.27;;
21091;SDS011;10704;42.678;23.288;2022-11-21T16:58:02;23.02;;;13.18;;
21091;SDS011;10704;42.678;23.288;2022-11-21T17:00:29;19.35;;;11.98;;
21091;SDS011;10704;42.678;23.288;2022-11-21T17:02:54;15.75;;;9.80;;
21091;SDS011;10704;42.678;23.288;2022-11-21T17:05:21;14.63;;;8.65;;
21091;SDS011;10704;42.678;23.288;2022-11-21T17:07:47;14.95;;;8.23;;
21091;SDS011;10704;42.678;23.288;2022-11-21T17:10:13;17.83;;;9.35;;
21091;SDS011;10704;42.678;23.288;2022-11-21T17:12:40;16.13;;;9.43;;
21091;SDS011;10704;42.678;23.288;2022-11-21T17:15:08;13.20;;;8.57;;
21091;SDS011;10704;42.678;23.288;2022-11-21T17:17:36;14.20;;;9.07;;
21091;SDS011;10704;42.678;23.288;2022-11-21T17:20:02;16.25;;;9.68;;
21091;SDS011;10704;42.678;23.288;2022-11-21T17:22:29;11.15;;;5.88;;
21091;SDS011;10704;42.678;23.288;2022-11-21T17:24:55;12.13;;;7.28;;
21091;SDS011;10704;42.678;23.288;2022-11-21T17:27:21;10.25;;;6.82;;
21091;SDS011;10704;42.678;23.288;2022-11-21T17:29:48;9.95;;;6.55;;
21091;SDS011;10704;42.678;23.288;2022-11-21T17:32:15;11.25;;;6.72;;
21091;SDS011;10704;42.678;23.288;2022-11-21T17:34:41;9.98;;;5.55;;
21091;SDS011;10704;42.678;23.288;2022-11-21T17:37:07;11.48;;;6.35;;
21091;SDS011;10704;42.678;23.288;2022-11-21T17:39:33;11.65;;;6.95;;
21091;SDS011;10704;42.678;23.288;2022-11-21T17:42:00;10.60;;;7.38;;
21091;SDS011;10704;42.678;23.288;2022-11-21T17:44:26;10.13;;;6.25;;
21091;SDS011;10704;42.678;23.288;2022-11-21T17:46:53;9.73;;;6.60;;
21091;SDS011;10704;42.678;23.288;2022-11-21T17:49:19;11.10;;;6.85;;
21091;SDS011;10704;42.678;23.288;2022-11-21T17:51:45;10.35;;;6.70;;
21091;SDS011;10704;42.678;23.288;2022-11-21T17:54:11;12.63;;;7.80;;
21091;SDS011;10704;42.678;23.288;2022-11-21T17:56:38;13.45;;;8.10;;
21091;SDS011;10704;42.678;23.288;2022-11-21T17:59:04;12.15;;;7.63;;
21091;SDS011;10704;42.678;23.288;2022-11-21T18:01:31;10.52;;;7.00;;
21091;SDS011;10704;42.678;23.288;2022-11-21T18:03:59;14.05;;;8.80;;
21091;SDS011;10704;42.678;23.288;2022-11-21T18:06:27;12.65;;;7.85;;
21091;SDS011;10704;42.678;23.288;2022-11-21T18:08:57;16.25;;;10.02;;
21091;SDS011;10704;42.678;23.288;2022-11-21T18:11:24;15.75;;;10.05;;
21091;SDS011;10704;42.678;23.288;2022-11-21T18:13:52;14.57;;;9.20;;
21091;SDS011;10704;42.678;23.288;2022-11-21T18:16:19;12.48;;;8.10;;
21091;SDS011;10704;42.678;23.288;2022-11-21T18:18:47;14.82;;;8.48;;
21091;SDS011;10704;42.678;23.288;2022-11-21T18:21:14;12.75;;;8.45;;
21091;SDS011;10704;42.678;23.288;2022-11-21T18:23:42;21.55;;;11.60;;
21091;SDS011;10704;42.678;23.288;2022-11-21T18:26:14;17.77;;;10.07;;
21091;SDS011;10704;42.678;23.288;2022-11-21T18:28:44;13.25;;;8.48;;
21091;SDS011;10704;42.678;23.288;2022-11-21T18:31:12;13.05;;;8.75;;
21091;SDS011;10704;42.678;23.288;2022-11-21T18:33:49;12.77;;;8.38;;
21091;SDS011;10704;42.678;23.288;2022-11-21T18:36:16;12.25;;;7.65;;
21091;SDS011;10704;42.678;23.288;2022-11-21T18:38:43;11.65;;;7.47;;
21091;SDS011;10704;42.678;23.288;2022-11-21T18:41:11;13.15;;;8.15;;
21091;SDS011;10704;42.678;23.288;2022-11-21T18:43:57;13.75;;;8.10;;
21091;SDS011;10704;42.678;23.288;2022-11-21T18:46:28;12.63;;;7.78;;
21091;SDS011;10704;42.678;23.288;2022-11-21T18:48:55;11.60;;;7.57;;
21091;SDS011;10704;42.678;23.288;2022-11-21T18:51:23;10.40;;;7.28;;
21091;SDS011;10704;42.678;23.288;2022-11-21T18:53:51;15.00;;;9.10;;
21091;SDS011;10704;42.678;23.288;2022-11-21T18:56:21;17.70;;;10.68;;
21091;SDS011;10704;42.678;23.288;2022-11-21T18:58:49;12.98;;;7.55;;
21091;SDS011;10704;42.678;23.288;2022-11-21T19:01:20;14.82;;;9.32;;
21091;SDS011;10704;42.678;23.288;2022-11-21T19:03:47;13.73;;;8.45;;
21091;SDS011;10704;42.678;23.288;2022-11-21T19:06:15;10.32;;;6.60;;
21091;SDS011;10704;42.678;23.288;2022-11-21T19:08:49;8.02;;;5.60;;
21091;SDS011;10704;42.678;23.288;2022-11-21T19:11:17;8.98;;;5.72;;
21091;SDS011;10704;42.678;23.288;2022-11-21T19:13:45;8.00;;;5.43;;
21091;SDS011;10704;42.678;23.288;2022-11-21T19:16:12;7.13;;;5.20;;